Last 7 Days

Abernathy 3 (AB3)

Hourly Data | America/Los_Angeles
as of 12/9/18 2:06 PM PST
Date Time Temp (°F) RH (%) Dew Pt (°F) Wind Spd (mph) Wind Dir (°) Wind Gust (mph) Latest Rain (In) Daily Rain (In) Daily Min Temp (°F) Daily Max Temp (°F) Day
12/9/18 1400 49.6 87 45.9 4.0 E | 81 8.4 0.00 0.00 39.3 50.1 12/9/18
12/9/18 1300 49.2 88 45.9 4.7 E | 80 8.4 0.00 0.00 39.3 49.4 12/9/18
12/9/18 1200 49.1 90 46.2 4.2 E | 83 8.1 0.00 0.00 39.3 49.2 12/9/18
12/9/18 1100 49.0 93 47.0 3.4 ENE | 63 7.8 0.00 0.00 39.3 49.2 12/9/18
12/9/18 1000 47.6 100 47.5 2.9 NE | 44 7.4 0.00 0.00 39.3 48.5 12/9/18
12/9/18 0900 45.2 100 45.2 3.1 NNW | 339 5.8 0.00 0.00 39.3 46.1 12/9/18
12/9/18 0800 43.9 100 43.9 3.4 NW | 326 6.1 0.00 0.00 39.3 44.2 12/9/18
12/9/18 0700 43.4 100 43.4 2.1 NNW | 336 4.8 0.00 0.00 39.3 43.8 12/9/18
12/9/18 0600 42.6 100 42.6 1.7 NNW | 327 4.4 0.00 0.00 39.3 43.4 12/9/18
12/9/18 0500 41.8 100 41.8 1.7 NW | 325 4.4 0.00 0.00 39.3 43.4 12/9/18
12/9/18 0400 40.8 100 40.8 3.2 NNW | 338 5.8 0.00 0.00 39.3 43.4 12/9/18
12/9/18 0300 40.4 100 40.4 2.1 NNW | 330 5.8 0.00 0.00 39.3 43.4 12/9/18
12/9/18 0200 39.9 100 39.8 1.0 N | 5 3.8 0.00 0.00 39.3 43.4 12/9/18
12/9/18 0100 40.7 95 39.5 3.1 SE | 124 7.1 0.00 0.00 39.3 43.4 12/9/18
12/9/18 0000 43.4 91 40.9 1.5 NNE | 17 4.1 0.00 0.00 37.0 60.4 12/8/18
12/8/18 2300 43.1 92 40.9 3.4 NW | 322 5.8 0.00 0.00 37.0 60.4 12/8/18
12/8/18 2200 42.6 94 40.9 3.6 NW | 324 6.4 0.00 0.00 37.0 60.4 12/8/18
12/8/18 2100 42.6 94 41.1 1.8 NNW | 337 3.4 0.00 0.00 37.0 60.4 12/8/18
12/8/18 2000 43.6 93 41.7 1.1 WNW | 284 2.7 0.00 0.00 37.0 60.4 12/8/18
12/8/18 1900 46.6 86 42.6 0.8 N | 354 3.8 0.00 0.00 37.0 60.4 12/8/18
12/8/18 1800 52.7 70 43.1 1.0 NE | 56 3.8 0.00 0.00 37.0 60.4 12/8/18
12/8/18 1700 57.2 60 43.2 4.5 E | 90 9.1 0.00 0.00 37.0 60.4 12/8/18
12/8/18 1600 59.9 53 42.8 4.5 ENE | 76 9.1 0.00 0.00 37.0 60.4 12/8/18
12/8/18 1500 59.7 53 42.5 6.3 ENE | 76 11.5 0.00 0.00 37.0 60.1 12/8/18
12/8/18 1400 59.2 54 42.5 7.1 ENE | 70 12.8 0.00 0.00 37.0 59.7 12/8/18
12/8/18 1300 58.4 56 42.6 7.0 ENE | 69 12.8 0.00 0.00 37.0 58.9 12/8/18
12/8/18 1200 55.8 64 43.6 4.1 ESE | 123 12.1 0.00 0.00 37.0 58.3 12/8/18
12/8/18 1100 50.8 76 43.6 1.2 SSW | 194 4.4 0.00 0.00 37.0 53.1 12/8/18
12/8/18 1000 47.7 81 42.1 0.8 SE | 138 2.7 0.00 0.00 37.0 49.6 12/8/18
12/8/18 0900 42.4 93 40.5 0.7 E | 89 2.7 0.00 0.00 37.0 44.9 12/8/18
12/8/18 0800 37.8 98 37.4 0.4 WSW | 257 0.4 0.00 0.00 37.0 42.8 12/8/18
12/8/18 0700 38.4 99 38.0 1.0 WSW | 246 3.1 0.00 0.00 37.1 42.8 12/8/18
12/8/18 0600 38.2 99 37.8 0.4 WSW | 246 1.7 0.00 0.00 37.1 42.8 12/8/18
12/8/18 0500 38.0 99 37.6 0.6 NW | 306 2.1 0.00 0.00 37.1 42.8 12/8/18
12/8/18 0400 37.8 97 37.1 0.5 NW | 311 2.1 0.00 0.00 37.1 42.8 12/8/18
12/8/18 0300 39.6 96 38.6 0.4 WNW | 297 1.4 0.00 0.00 38.5 42.8 12/8/18
12/8/18 0200 40.8 95 39.6 1.5 NW | 318 3.4 0.00 0.00 40.0 42.8 12/8/18
12/8/18 0100 41.5 94 39.9 1.6 NW | 317 3.8 0.00 0.00 40.9 42.8 12/8/18
12/8/18 0000 43.6 90 40.9 2.2 NW | 326 5.8 0.00 0.00 40.0 62.4 12/7/18
12/7/18 2300 44.0 90 41.3 3.6 NW | 319 6.1 0.00 0.00 40.0 62.4 12/7/18
12/7/18 2200 44.4 90 41.5 3.1 NW | 318 5.4 0.00 0.00 40.0 62.4 12/7/18
12/7/18 2100 44.9 89 41.9 2.9 NW | 318 4.8 0.00 0.00 40.0 62.4 12/7/18
12/7/18 2000 46.0 88 42.6 2.7 NW | 321 4.8 0.00 0.00 40.0 62.4 12/7/18
12/7/18 1900 47.3 88 43.8 1.8 NNW | 327 3.8 0.00 0.00 40.0 62.4 12/7/18
12/7/18 1800 51.3 77 44.3 0.8 WNW | 285 2.7 0.00 0.00 40.0 62.4 12/7/18
12/7/18 1700 58.4 60 44.5 1.9 SE | 140 4.4 0.00 0.00 40.0 62.4 12/7/18
12/7/18 1600 60.6 52 43.1 3.0 ESE | 120 6.8 0.00 0.00 40.0 62.4 12/7/18
12/7/18 1500 61.2 49 41.8 2.4 ESE | 105 7.1 0.00 0.00 40.0 62.4 12/7/18
12/7/18 1400 59.6 52 41.8 5.1 E | 93 10.5 0.00 0.00 40.0 60.2 12/7/18
12/7/18 1300 57.6 58 43.0 4.3 SSE | 148 7.8 0.00 0.00 40.0 59.2 12/7/18
12/7/18 1200 54.4 68 44.0 2.5 S | 185 5.8 0.00 0.00 40.0 55.4 12/7/18
12/7/18 1100 49.9 76 42.6 2.0 S | 177 4.4 0.00 0.00 40.0 52.5 12/7/18
12/7/18 1000 46.2 82 41.1 2.2 S | 186 6.1 0.00 0.00 40.0 48.9 12/7/18
12/7/18 0900 43.7 87 40.2 1.4 WSW | 238 5.4 0.00 0.00 40.0 44.7 12/7/18
12/7/18 0800 42.0 89 39.0 0.6 N | 349 4.4 0.00 0.00 40.0 44.7 12/7/18
12/7/18 0700 41.8 89 38.9 1.8 WNW | 291 4.8 0.00 0.00 40.0 44.7 12/7/18
12/7/18 0600 44.1 86 40.0 4.2 NNW | 333 8.1 0.00 0.00 40.0 44.7 12/7/18
12/7/18 0500 43.5 87 39.9 3.9 NNW | 332 7.8 0.00 0.00 40.0 44.2 12/7/18
12/7/18 0400 42.2 90 39.4 2.7 NW | 321 4.8 0.00 0.00 40.0 43.0 12/7/18
12/7/18 0300 41.3 93 39.5 3.1 NW | 312 5.1 0.00 0.00 40.0 42.6 12/7/18
12/7/18 0200 40.7 95 39.4 1.0 NW | 307 3.1 0.00 0.00 40.0 42.6 12/7/18
12/7/18 0100 41.9 93 40.0 0.7 NW | 308 3.4 0.00 0.00 41.3 42.6 12/7/18
12/7/18 0000 42.4 93 40.5 1.3 WNW | 299 4.4 0.00 0.00 42.1 65.2 12/6/18
12/6/18 2300 42.9 92 40.8 0.8 W | 279 3.1 0.00 0.00 42.2 65.2 12/6/18
12/6/18 2200 44.8 88 41.5 2.2 NW | 314 4.8 0.00 0.00 43.1 65.2 12/6/18
12/6/18 2100 45.5 88 42.0 2.7 NW | 322 4.8 0.00 0.00 43.1 65.2 12/6/18
12/6/18 2000 46.5 87 42.9 2.0 NW | 326 4.1 0.00 0.00 43.1 65.2 12/6/18
12/6/18 1900 49.9 79 43.7 2.2 SW | 234 4.4 0.00 0.00 43.1 65.2 12/6/18
12/6/18 1800 53.6 67 42.7 1.0 N | 352 4.4 0.00 0.00 43.1 65.2 12/6/18
12/6/18 1700 59.7 50 41.0 3.1 ENE | 64 7.4 0.00 0.00 43.1 65.2 12/6/18
12/6/18 1600 62.9 44 40.7 3.6 ENE | 61 7.1 0.00 0.00 43.1 65.2 12/6/18
12/6/18 1500 64.1 44 41.6 3.3 SE | 128 8.8 0.00 0.00 43.1 65.2 12/6/18
12/6/18 1400 63.5 43 40.9 1.7 NE | 45 6.4 0.00 0.00 43.1 65.1 12/6/18
12/6/18 1300 61.9 46 40.9 2.0 SE | 140 6.4 0.00 0.00 43.1 62.8 12/6/18
12/6/18 1200 59.4 51 41.1 1.5 S | 172 5.1 0.00 0.00 43.1 61.3 12/6/18
12/6/18 1100 55.4 63 43.1 4.0 S | 183 7.4 0.00 0.00 43.1 57.8 12/6/18
12/6/18 1000 52.7 74 44.5 4.7 S | 183 7.8 0.00 0.00 43.1 54.0 12/6/18
12/6/18 0900 48.3 85 44.0 1.2 SSW | 207 4.1 0.00 0.00 43.1 50.4 12/6/18
12/6/18 0800 43.6 95 42.3 1.0 NNW | 328 3.1 0.00 0.00 43.1 48.5 12/6/18
12/6/18 0700 44.2 94 42.6 0.6 NNW | 336 3.4 0.00 0.00 43.5 48.5 12/6/18
12/6/18 0600 44.4 94 42.7 0.5 NW | 308 5.1 0.00 0.00 44.2 48.5 12/6/18
12/6/18 0500 45.1 93 43.1 0.4 NNW | 329 1.7 0.00 0.00 44.7 48.5 12/6/18
12/6/18 0400 45.0 91 42.6 0.8 NNW | 334 2.7 0.00 0.00 44.7 48.5 12/6/18
12/6/18 0300 47.4 83 42.6 0.5 NW | 326 2.1 0.00 0.00 46.3 48.5 12/6/18
12/6/18 0200 47.8 83 42.9 2.0 S | 190 5.1 0.00 0.00 46.4 48.5 12/6/18
12/6/18 0100 47.1 87 43.4 2.5 SSW | 197 6.8 0.00 0.00 46.4 47.8 12/6/18
12/6/18 0000 45.7 91 43.1 0.9 SW | 230 4.4 0.00 0.20 42.6 56.7 12/5/18
12/5/18 2300 44.9 92 42.8 0.8 NW | 324 3.4 0.00 0.20 42.6 56.7 12/5/18
12/5/18 2200 43.2 95 41.8 0.7 WSW | 258 2.4 0.00 0.20 42.6 56.7 12/5/18
12/5/18 2100 45.5 90 42.7 0.6 SW | 230 2.7 0.00 0.20 44.1 56.7 12/5/18
12/5/18 2000 48.1 84 43.6 0.9 W | 268 3.8 0.00 0.20 46.5 56.7 12/5/18
12/5/18 1900 50.0 80 44.0 2.2 NNW | 337 6.1 0.00 0.20 48.0 56.7 12/5/18
12/5/18 1800 51.3 75 43.8 1.8 N | 5 4.4 0.00 0.20 48.0 56.7 12/5/18
12/5/18 1700 54.2 68 44.1 1.2 N | 351 4.8 0.00 0.20 48.0 56.7 12/5/18
12/5/18 1600 55.6 62 42.9 4.3 NNE | 25 9.1 0.00 0.20 48.0 56.7 12/5/18
12/5/18 1500 55.4 65 44.0 6.8 NNE | 18 14.2 0.00 0.20 48.0 56.7 12/5/18
12/5/18 1400 55.6 66 44.3 8.1 NNE | 28 14.5 0.00 0.20 48.0 56.7 12/5/18
12/5/18 1300 56.1 63 43.9 7.9 NNE | 24 16.2 0.00 0.20 48.0 56.7 12/5/18
12/5/18 1200 55.0 66 44.0 7.2 NNE | 26 14.5 0.00 0.20 48.0 56.1 12/5/18
12/5/18 1100 53.8 70 44.0 4.9 NNE | 12 10.1 0.00 0.20 48.0 54.2 12/5/18
12/5/18 1000 53.1 70 43.7 7.4 N | 11 15.8 0.00 0.20 48.0 53.6 12/5/18
12/5/18 0900 51.6 75 43.9 7.8 N | 4 15.2 0.00 0.20 48.0 52.4 12/5/18
12/5/18 0800 50.8 77 44.0 8.8 N | 6 20.2 0.01 0.20 48.0 52.1 12/5/18
12/5/18 0700 51.5 72 43.0 7.4 NNE | 23 15.5 0.00 0.19 48.0 52.1 12/5/18
12/5/18 0600 51.3 74 43.2 8.5 NE | 43 17.8 0.00 0.19 48.0 51.8 12/5/18
12/5/18 0500 50.0 80 44.0 5.7 NE | 36 12.8 0.01 0.19 48.0 51.8 12/5/18
12/5/18 0400 48.7 87 45.0 4.0 N | 5 12.5 0.03 0.18 48.0 51.8 12/5/18
12/5/18 0300 48.4 90 45.6 4.4 NNE | 18 8.8 0.08 0.15 48.0 51.8 12/5/18
12/5/18 0200 50.3 76 42.9 5.7 E | 83 16.5 0.07 0.07 48.7 51.8 12/5/18
12/5/18 0100 51.1 63 38.8 5.7 E | 96 12.5 0.00 0.00 50.6 51.8 12/5/18
12/5/18 0000 52.2 55 36.5 4.3 ESE | 116 10.1 0.00 0.00 49.2 55.1 12/4/18
12/4/18 2300 52.4 54 36.2 2.4 ENE | 60 7.4 0.00 0.00 49.2 55.1 12/4/18
12/4/18 2200 52.4 53 35.8 3.1 N | 9 6.4 0.00 0.00 49.2 55.1 12/4/18
12/4/18 2100 51.3 59 37.3 2.4 NNE | 12 9.5 0.00 0.00 49.2 55.1 12/4/18
12/4/18 2000 50.2 65 38.8 1.4 W | 259 4.8 0.00 0.00 49.2 55.1 12/4/18
12/4/18 1900 50.8 61 37.8 0.9 SE | 128 3.4 0.00 0.00 49.7 55.1 12/4/18
12/4/18 1800 52.9 54 36.5 2.1 ENE | 75 7.1 0.00 0.00 50.3 55.1 12/4/18
12/4/18 1700 53.3 53 36.7 2.0 E | 90 7.4 0.00 0.00 50.3 55.1 12/4/18
12/4/18 1600 53.8 54 37.4 3.8 E | 82 7.8 0.00 0.00 50.3 55.1 12/4/18
12/4/18 1500 54.1 53 37.3 5.8 ENE | 57 13.8 0.00 0.00 50.3 55.1 12/4/18
12/4/18 1400 54.4 49 35.6 6.7 ENE | 57 15.5 0.00 0.00 50.3 55.1 12/4/18
12/4/18 1300 54.4 47 34.6 6.9 ENE | 63 16.8 0.00 0.00 50.3 55.1 12/4/18
12/4/18 1200 54.7 47 35.0 6.0 ENE | 70 13.2 0.00 0.00 50.3 55.1 12/4/18
12/4/18 1100 54.2 49 35.5 6.2 ENE | 57 13.5 0.00 0.00 50.3 54.8 12/4/18
12/4/18 1000 52.9 47 33.3 4.4 ENE | 59 11.1 0.00 0.00 50.3 53.4 12/4/18
12/4/18 0900 51.6 47 32.2 4.8 ENE | 65 11.8 0.00 0.00 50.3 53.2 12/4/18
12/4/18 0800 51.1 45 30.6 5.0 ENE | 73 13.8 0.00 0.00 50.3 53.2 12/4/18
12/4/18 0700 51.6 44 30.3 4.7 ENE | 71 13.8 0.00 0.00 50.5 53.2 12/4/18
12/4/18 0600 51.5 42 29.4 7.0 NE | 56 17.5 0.00 0.00 50.5 53.2 12/4/18
12/4/18 0500 51.8 41 29.0 5.5 E | 80 15.2 0.00 0.00 50.5 53.2 12/4/18
12/4/18 0400 51.6 40 28.4 4.6 NE | 56 11.5 0.00 0.00 50.5 52.3 12/4/18
12/4/18 0300 51.3 39 27.2 4.9 E | 80 10.5 0.00 0.00 50.5 52.3 12/4/18
12/4/18 0200 51.4 40 27.8 5.8 ENE | 63 14.5 0.00 0.00 50.7 51.8 12/4/18
12/4/18 0100 51.5 38 26.5 8.0 NE | 56 17.2 0.00 0.00 51.2 51.7 12/4/18
12/4/18 0000 51.1 39 27.2 7.2 NE | 42 22.2 0.00 0.00 33.0 55.4 12/3/18
12/3/18 2300 50.4 42 28.3 6.1 ENE | 57 14.2 0.00 0.00 33.0 55.4 12/3/18
12/3/18 2200 50.1 45 29.7 6.5 ENE | 73 14.5 0.00 0.00 33.0 55.4 12/3/18
12/3/18 2100 49.5 50 31.6 4.9 ENE | 74 14.2 0.00 0.00 33.0 55.4 12/3/18
12/3/18 2000 49.3 53 32.8 4.8 ENE | 77 11.8 0.00 0.00 33.0 55.4 12/3/18
12/3/18 1900 49.2 56 34.1 6.1 ENE | 75 12.1 0.00 0.00 33.0 55.4 12/3/18
12/3/18 1800 49.9 57 35.2 4.5 E | 95 9.5 0.00 0.00 33.0 55.4 12/3/18
12/3/18 1700 51.0 55 35.2 5.9 NE | 55 10.8 0.00 0.00 33.0 55.4 12/3/18
12/3/18 1600 52.5 50 34.2 7.2 NE | 56 13.5 0.00 0.00 33.0 55.4 12/3/18
12/3/18 1500 53.8 48 34.6 8.3 ENE | 61 15.2 0.00 0.00 33.0 55.4 12/3/18
12/3/18 1400 54.8 48 35.4 7.3 ENE | 67 13.2 0.00 0.00 33.0 55.4 12/3/18
12/3/18 1300 53.9 50 35.5 6.7 ENE | 71 13.5 0.00 0.00 33.0 54.9 12/3/18
12/3/18 1200 52.8 50 34.8 6.9 NE | 51 13.5 0.00 0.00 33.0 53.4 12/3/18
12/3/18 1100 51.3 53 34.8 6.9 NE | 48 13.5 0.00 0.00 33.0 52.4 12/3/18
12/3/18 1000 44.9 76 37.8 0.9 WSW | 252 3.4 0.00 0.00 33.0 47.4 12/3/18
12/3/18 0900 40.4 92 38.2 0.6 S | 174 3.1 0.00 0.00 33.0 42.6 12/3/18
12/3/18 0800 36.1 97 35.4 0.5 NNW | 340 2.1 0.00 0.00 33.0 38.6 12/3/18
12/3/18 0700 35.6 97 34.8 0.8 N | 7 3.8 0.00 0.00 33.0 38.6 12/3/18
12/3/18 0600 36.4 96 35.4 0.5 NNW | 331 2.4 0.00 0.00 33.0 38.6 12/3/18
12/3/18 0500 34.8 98 34.3 0.9 NW | 323 3.8 0.00 0.00 33.0 38.6 12/3/18
12/3/18 0400 33.6 97 32.8 0.6 NNW | 342 2.7 0.00 0.00 33.0 38.6 12/3/18
12/3/18 0300 35.3 95 34.0 0.8 WSW | 238 3.4 0.00 0.00 33.7 38.6 12/3/18
12/3/18 0200 35.9 96 34.9 1.5 NNW | 341 3.8 0.00 0.00 35.3 38.6 12/3/18
12/3/18 0100 37.2 94 35.7 0.4 SW | 224 1.7 0.00 0.00 35.3 38.6 12/3/18
12/3/18 0000 40.8 88 37.4 1.6 NW | 325 5.4 0.00 0.00 35.3 57.5 12/2/18
12/2/18 2300 41.0 90 38.4 2.1 N | 350 6.8 0.00 0.00 35.3 57.5 12/2/18
12/2/18 2200 40.8 92 38.7 1.9 NNW | 339 4.8 0.00 0.00 35.3 57.5 12/2/18
12/2/18 2100 41.3 92 39.3 1.4 NNW | 339 3.4 0.00 0.00 35.3 57.5 12/2/18
12/2/18 2000 42.1 93 40.1 1.0 N | 350 3.1 0.00 0.00 35.3 57.5 12/2/18
12/2/18 1900 45.3 81 39.7 0.8 NW | 325 3.1 0.00 0.00 35.3 57.5 12/2/18
12/2/18 1800 50.6 64 38.8 1.9 E | 79 6.1 0.00 0.00 35.3 57.5 12/2/18
12/2/18 1700 53.3 60 39.8 3.0 E | 86 6.8 0.00 0.00 35.3 57.5 12/2/18
12/2/18 1600 56.0 55 39.9 4.5 ENE | 75 8.4 0.00 0.00 35.3 57.5 12/2/18
12/2/18 1500 56.7 49 37.8 4.1 ESE | 107 9.1 0.00 0.00 35.3 57.5 12/2/18
Tip: Bookmark this page for easy future reference